Time,TemperatureF,DewpointF,PressureIn,WindDirection,WindDirectionDegrees,WindSpeedMPH,WindSpeedGustMPH,Humidity,HourlyPrecipIn,Conditions,Clouds,dailyrainin,SoftwareType,DateUTC
2013-03-04 00:01:00,51.0,42.0,30.11,NNW,333,5.0,13.0,71,0.00,,,0.00,,2013-03-04 05:01:00,
2013-03-04 00:11:00,51.0,42.0,30.11,NNW,333,5.0,13.0,71,0.00,,,0.00,,2013-03-04 05:11:00,
2013-03-04 00:22:00,51.0,42.0,30.11,NNW,344,5.0,14.0,70,0.00,,,0.00,,2013-03-04 05:22:00,
2013-03-04 00:32:00,50.0,40.0,30.11,NNE,21,6.0,12.0,69,0.00,,,0.00,,2013-03-04 05:32:00,
2013-03-04 00:42:00,50.0,40.0,30.11,NW,310,5.0,14.0,69,0.00,,,0.00,,2013-03-04 05:42:00,
2013-03-04 00:52:00,50.0,40.0,30.11,NW,310,5.0,14.0,69,0.00,,,0.00,,2013-03-04 05:52:00,
2013-03-04 01:02:00,50.0,40.0,30.11,NNW,328,7.0,14.0,69,0.00,,,0.00,,2013-03-04 06:02:00,
2013-03-04 01:11:00,50.0,40.0,30.11,NNW,328,7.0,14.0,69,0.00,,,0.00,,2013-03-04 06:11:00,
2013-03-04 01:22:00,49.0,40.0,30.11,NNW,333,3.0,12.0,71,0.00,,,0.00,,2013-03-04 06:22:00,
2013-03-04 01:32:00,49.0,40.0,30.11,NNW,331,5.0,11.0,72,0.00,,,0.00,,2013-03-04 06:32:00,
2013-03-04 01:42:00,49.0,40.0,30.11,NNW,331,5.0,11.0,72,0.00,,,0.00,,2013-03-04 06:42:00,
2013-03-04 01:51:00,49.0,41.0,30.11,NNW,338,5.0,11.0,74,0.00,,,0.00,,2013-03-04 06:51:00,
2013-03-04 02:02:00,48.0,40.0,30.11,NNW,348,5.0,13.0,74,0.00,,,0.00,,2013-03-04 07:02:00,
2013-03-04 02:11:00,48.0,40.0,30.11,NNW,348,5.0,13.0,74,0.00,,,0.00,,2013-03-04 07:11:00,
2013-03-04 02:22:00,48.0,40.0,30.11,North,355,6.0,12.0,74,0.00,,,0.00,,2013-03-04 07:22:00,
2013-03-04 02:32:00,48.0,40.0,30.11,North,355,5.0,19.0,73,0.00,,,0.00,,2013-03-04 07:32:00,
2013-03-04 02:42:00,48.0,40.0,30.11,North,355,5.0,19.0,73,0.00,,,0.00,,2013-03-04 07:42:00,
2013-03-04 02:52:00,48.0,40.0,30.11,NNW,346,6.0,14.0,73,0.00,,,0.00,,2013-03-04 07:52:00,
2013-03-04 03:02:00,47.0,38.0,30.11,NNW,328,4.0,14.0,72,0.00,,,0.00,,2013-03-04 08:02:00,
2013-03-04 03:12:00,47.0,38.0,30.10,NNW,339,4.0,11.0,72,0.00,,,0.00,,2013-03-04 08:12:00,
2013-03-04 03:22:00,47.0,38.0,30.10,NNW,339,4.0,11.0,72,0.00,,,0.00,,2013-03-04 08:22:00,
2013-03-04 03:32:00,47.0,39.0,30.10,North,350,3.0,10.0,73,0.00,,,0.00,,2013-03-04 08:32:00,
2013-03-04 03:42:00,47.0,39.0,30.10,North,350,3.0,10.0,73,0.00,,,0.00,,2013-03-04 08:42:00,
2013-03-04 03:52:00,47.0,39.0,30.10,NNW,339,4.0,9.0,74,0.00,,,0.00,,2013-03-04 08:52:00,
2013-03-04 04:02:00,47.0,39.0,30.10,NNW,339,4.0,9.0,74,0.00,,,0.00,,2013-03-04 09:02:00,
2013-03-04 04:11:00,47.0,39.0,30.10,NNW,339,4.0,9.0,74,0.00,,,0.00,,2013-03-04 09:11:00,
2013-03-04 04:22:00,46.0,38.0,30.09,NNW,327,5.0,11.0,73,0.00,,,0.00,,2013-03-04 09:22:00,
2013-03-04 04:32:00,46.0,38.0,30.10,North,5,3.0,12.0,73,0.00,,,0.00,,2013-03-04 09:32:00,
2013-03-04 04:42:00,46.0,38.0,30.10,North,5,3.0,12.0,73,0.00,,,0.00,,2013-03-04 09:42:00,
2013-03-04 04:52:00,45.0,37.0,30.11,NNW,344,3.0,11.0,72,0.00,,,0.00,,2013-03-04 09:52:00,
2013-03-04 05:01:00,45.0,37.0,30.11,NNW,332,4.0,9.0,72,0.00,,,0.00,,2013-03-04 10:01:00,
2013-03-04 05:12:00,45.0,37.0,30.11,NNW,332,4.0,9.0,72,0.00,,,0.00,,2013-03-04 10:12:00,
2013-03-04 05:22:00,45.0,37.0,30.12,NNW,332,4.0,11.0,72,0.00,,,0.00,,2013-03-04 10:22:00,
2013-03-04 05:32:00,45.0,36.0,30.13,North,355,5.0,7.0,71,0.00,,,0.00,,2013-03-04 10:32:00,
2013-03-04 05:42:00,45.0,36.0,30.14,NNW,331,3.0,8.0,71,0.00,,,0.00,,2013-03-04 10:42:00,
2013-03-04 05:52:00,45.0,36.0,30.14,NNW,331,3.0,8.0,71,0.00,,,0.00,,2013-03-04 10:52:00,
2013-03-04 06:02:00,45.0,37.0,30.14,NW,321,2.0,7.0,73,0.00,,,0.00,,2013-03-04 11:02:00,
2013-03-04 06:11:00,45.0,37.0,30.14,NW,321,2.0,7.0,73,0.00,,,0.00,,2013-03-04 11:11:00,
2013-03-04 06:22:00,45.0,37.0,30.14,North,349,1.0,5.0,72,0.00,,,0.00,,2013-03-04 11:22:00,
2013-03-04 06:32:00,45.0,37.0,30.15,NNW,346,2.0,6.0,72,0.00,,,0.00,,2013-03-04 11:32:00,
2013-03-04 06:42:00,45.0,37.0,30.15,NNW,346,2.0,6.0,72,0.00,,,0.00,,2013-03-04 11:42:00,
2013-03-04 06:52:00,45.0,37.0,30.15,NNW,346,2.0,6.0,72,0.00,,,0.00,,2013-03-04 11:52:00,
2013-03-04 07:02:00,44.0,36.0,30.16,NNW,328,2.0,7.0,73,0.00,,,0.00,,2013-03-04 12:02:00,
2013-03-04 07:12:00,44.0,36.0,30.16,NNW,336,1.0,5.0,73,0.00,,,0.00,,2013-03-04 12:12:00,
2013-03-04 07:22:00,44.0,36.0,30.16,NNW,336,1.0,5.0,73,0.00,,,0.00,,2013-03-04 12:22:00,
2013-03-04 07:32:00,44.0,36.0,30.17,NNW,348,2.0,6.0,73,0.00,,,0.00,,2013-03-04 12:32:00,
2013-03-04 07:42:00,44.0,36.0,30.17,NNW,348,2.0,6.0,73,0.00,,,0.00,,2013-03-04 12:42:00,
2013-03-04 07:52:00,44.0,36.0,30.17,NNW,346,3.0,6.0,74,0.00,,,0.00,,2013-03-04 12:52:00,
2013-03-04 08:02:00,45.0,37.0,30.18,North,355,2.0,7.0,73,0.00,,,0.00,,2013-03-04 13:02:00,
2013-03-04 08:11:00,45.0,37.0,30.18,North,355,2.0,7.0,73,0.00,,,0.00,,2013-03-04 13:11:00,
2013-03-04 08:21:00,46.0,37.0,30.18,NNE,16,3.0,9.0,70,0.00,,,0.00,,2013-03-04 13:21:00,
2013-03-04 08:32:00,47.0,37.0,30.19,NNW,333,3.0,9.0,68,0.00,,,0.00,,2013-03-04 13:32:00,
2013-03-04 08:42:00,47.0,37.0,30.19,NNW,333,3.0,9.0,68,0.00,,,0.00,,2013-03-04 13:42:00,
2013-03-04 08:52:00,48.0,37.0,30.19,NW,326,7.0,14.0,65,0.00,,,0.00,,2013-03-04 13:52:00,
2013-03-04 09:01:00,49.0,37.0,30.19,NNW,328,6.0,12.0,64,0.00,,,0.00,,2013-03-04 14:01:00,
2013-03-04 09:12:00,49.0,37.0,30.19,NNW,328,6.0,12.0,64,0.00,,,0.00,,2013-03-04 14:12:00,
2013-03-04 09:22:00,50.0,38.0,30.19,NW,314,5.0,15.0,64,0.00,,,0.00,,2013-03-04 14:22:00,
2013-03-04 09:32:00,50.0,38.0,30.19,North,350,6.0,12.0,62,0.00,,,0.00,,2013-03-04 14:32:00,
2013-03-04 09:42:00,50.0,38.0,30.19,North,350,6.0,12.0,62,0.00,,,0.00,,2013-03-04 14:42:00,
2013-03-04 09:52:00,51.0,38.0,30.19,NNW,328,4.0,12.0,60,0.00,,,0.00,,2013-03-04 14:52:00,
2013-03-04 10:02:00,52.0,39.0,30.19,North,9,4.0,15.0,60,0.00,,,0.00,,2013-03-04 15:02:00,
2013-03-04 10:11:00,52.0,39.0,30.19,North,9,4.0,15.0,60,0.00,,,0.00,,2013-03-04 15:11:00,
2013-03-04 10:22:00,52.0,36.0,30.19,North,355,8.0,14.0,55,0.00,,,0.00,,2013-03-04 15:22:00,
2013-03-04 10:32:00,53.0,37.0,30.19,North,355,6.0,12.0,55,0.00,,,0.00,,2013-03-04 15:32:00,
2013-03-04 10:42:00,53.0,37.0,30.19,North,355,6.0,12.0,55,0.00,,,0.00,,2013-03-04 15:42:00,
2013-03-04 10:52:00,55.0,38.0,30.19,NNW,342,4.0,10.0,53,0.00,,,0.00,,2013-03-04 15:52:00,
2013-03-04 11:03:00,55.0,37.0,30.18,NNW,343,5.0,12.0,51,0.00,,,0.00,,2013-03-04 16:03:00,
2013-03-04 11:11:00,55.0,37.0,30.18,NNW,343,5.0,12.0,51,0.00,,,0.00,,2013-03-04 16:11:00,
2013-03-04 11:21:00,55.0,36.0,30.19,North,355,5.0,12.0,49,0.00,,,0.00,,2013-03-04 16:21:00,
2013-03-04 11:32:00,56.0,37.0,30.19,North,9,2.0,9.0,49,0.00,,,0.00,,2013-03-04 16:32:00,
2013-03-04 11:42:00,56.0,37.0,30.19,North,9,2.0,9.0,49,0.00,,,0.00,,2013-03-04 16:42:00,
2013-03-04 11:52:00,57.0,36.0,30.19,NNE,22,3.0,11.0,46,0.00,,,0.00,,2013-03-04 16:52:00,
2013-03-04 12:02:00,57.0,35.0,30.18,NNW,346,2.0,7.0,44,0.00,,,0.00,,2013-03-04 17:02:00,
2013-03-04 12:11:00,57.0,35.0,30.18,NNW,346,2.0,7.0,44,0.00,,,0.00,,2013-03-04 17:11:00,
2013-03-04 12:22:00,58.0,33.0,30.17,NNW,340,2.0,9.0,39,0.00,,,0.00,,2013-03-04 17:22:00,
2013-03-04 12:32:00,59.0,34.0,30.17,ESE,108,0.0,6.0,39,0.00,,,0.00,,2013-03-04 17:32:00,
2013-03-04 12:42:00,59.0,34.0,30.17,ESE,108,0.0,6.0,39,0.00,,,0.00,,2013-03-04 17:42:00,
2013-03-04 12:52:00,59.0,33.0,30.16,NNW,338,0.0,6.0,38,0.00,,,0.00,,2013-03-04 17:52:00,
2013-03-04 13:02:00,60.0,39.0,30.15,SSE,153,3.0,8.0,46,0.00,,,0.00,,2013-03-04 18:02:00,
2013-03-04 13:11:00,60.0,39.0,30.15,SSE,153,3.0,8.0,46,0.00,,,0.00,,2013-03-04 18:11:00,
2013-03-04 13:22:00,60.0,36.0,30.14,SE,128,1.0,6.0,41,0.00,,,0.00,,2013-03-04 18:22:00,
2013-03-04 13:32:00,61.0,37.0,30.14,SSE,150,3.0,7.0,41,0.00,,,0.00,,2013-03-04 18:32:00,
2013-03-04 13:42:00,61.0,37.0,30.14,SSE,150,3.0,7.0,41,0.00,,,0.00,,2013-03-04 18:42:00,
2013-03-04 13:52:00,60.0,37.0,30.13,SE,138,1.0,8.0,42,0.00,,,0.00,,2013-03-04 18:52:00,
2013-03-04 14:02:00,62.0,40.0,30.13,ESE,118,0.0,4.0,45,0.00,,,0.00,,2013-03-04 19:02:00,
2013-03-04 14:12:00,62.0,40.0,30.13,ESE,118,0.0,4.0,45,0.00,,,0.00,,2013-03-04 19:12:00,
2013-03-04 14:22:00,61.0,40.0,30.13,SE,146,0.0,6.0,45,0.00,,,0.00,,2013-03-04 19:22:00,
2013-03-04 14:32:00,61.0,40.0,30.13,SE,146,0.0,6.0,45,0.00,,,0.00,,2013-03-04 19:32:00,
2013-03-04 14:42:00,61.0,40.0,30.13,SE,146,0.0,6.0,45,0.00,,,0.00,,2013-03-04 19:42:00,
2013-03-04 14:52:00,62.0,42.0,30.12,ENE,65,1.0,5.0,48,0.00,,,0.00,,2013-03-04 19:52:00,
2013-03-04 15:02:00,62.0,39.0,30.12,SE,130,1.0,3.0,43,0.00,,,0.00,,2013-03-04 20:02:00,
2013-03-04 15:12:00,62.0,43.0,30.12,South,177,0.0,5.0,50,0.00,,,0.00,,2013-03-04 20:12:00,
2013-03-04 15:22:00,62.0,43.0,30.12,South,177,0.0,5.0,50,0.00,,,0.00,,2013-03-04 20:22:00,
2013-03-04 15:32:00,62.0,42.0,30.11,North,360,2.0,7.0,47,0.00,,,0.00,,2013-03-04 20:32:00,
2013-03-04 15:42:00,62.0,42.0,30.11,North,360,2.0,7.0,47,0.00,,,0.00,,2013-03-04 20:42:00,
2013-03-04 15:52:00,63.0,43.0,30.11,North,5,1.0,5.0,48,0.00,,,0.00,,2013-03-04 20:52:00,
2013-03-04 16:02:00,63.0,42.0,30.11,North,355,1.0,5.0,46,0.00,,,0.00,,2013-03-04 21:02:00,
2013-03-04 16:12:00,63.0,42.0,30.11,North,355,1.0,5.0,46,0.00,,,0.00,,2013-03-04 21:12:00,
2013-03-04 16:22:00,62.0,42.0,30.11,North,360,2.0,6.0,48,0.00,,,0.00,,2013-03-04 21:22:00,
2013-03-04 16:32:00,63.0,43.0,30.11,NE,37,0.0,6.0,48,0.00,,,0.00,,2013-03-04 21:32:00,
2013-03-04 16:42:00,63.0,43.0,30.11,NE,37,0.0,6.0,48,0.00,,,0.00,,2013-03-04 21:42:00,
2013-03-04 16:52:00,63.0,42.0,30.11,North,355,2.0,7.0,46,0.00,,,0.00,,2013-03-04 21:52:00,
2013-03-04 17:02:00,63.0,44.0,30.11,NNW,344,2.0,5.0,49,0.00,,,0.00,,2013-03-04 22:02:00,
2013-03-04 17:12:00,63.0,44.0,30.11,NNW,344,2.0,5.0,49,0.00,,,0.00,,2013-03-04 22:12:00,
2013-03-04 17:22:00,63.0,45.0,30.11,NNW,343,1.0,6.0,52,0.00,,,0.00,,2013-03-04 22:22:00,
2013-03-04 17:32:00,63.0,47.0,30.11,NNE,14,2.0,5.0,56,0.00,,,0.00,,2013-03-04 22:32:00,
2013-03-04 17:42:00,63.0,47.0,30.11,NNE,14,2.0,5.0,56,0.00,,,0.00,,2013-03-04 22:42:00,
2013-03-04 17:52:00,63.0,46.0,30.11,North,360,0.0,6.0,54,0.00,,,0.00,,2013-03-04 22:52:00,
2013-03-04 18:02:00,63.0,47.0,30.11,NNW,346,2.0,4.0,56,0.00,,,0.00,,2013-03-04 23:02:00,
2013-03-04 18:11:00,63.0,47.0,30.11,NNW,346,2.0,4.0,56,0.00,,,0.00,,2013-03-04 23:11:00,
2013-03-04 18:22:00,62.0,45.0,30.12,North,5,1.0,6.0,54,0.00,,,0.00,,2013-03-04 23:22:00,
2013-03-04 18:32:00,62.0,46.0,30.12,North,5,0.0,6.0,55,0.00,,,0.00,,2013-03-04 23:32:00,
2013-03-04 18:42:00,62.0,46.0,30.12,North,5,0.0,6.0,55,0.00,,,0.00,,2013-03-04 23:42:00,
2013-03-04 18:52:00,62.0,46.0,30.12,North,5,1.0,7.0,56,0.00,,,0.00,,2013-03-04 23:52:00,
2013-03-04 19:02:00,62.0,46.0,30.13,North,5,1.0,5.0,56,0.00,,,0.00,,2013-03-05 00:02:00,
2013-03-04 19:12:00,62.0,46.0,30.13,North,5,1.0,5.0,56,0.00,,,0.00,,2013-03-05 00:12:00,
2013-03-04 19:22:00,61.0,44.0,30.13,NNW,344,2.0,8.0,53,0.00,,,0.00,,2013-03-05 00:22:00,
2013-03-04 19:32:00,61.0,44.0,30.13,NNE,20,1.0,5.0,53,0.00,,,0.00,,2013-03-05 00:32:00,
2013-03-04 19:42:00,61.0,44.0,30.13,NNE,20,1.0,5.0,53,0.00,,,0.00,,2013-03-05 00:42:00,
2013-03-04 19:51:00,61.0,45.0,30.13,North,355,1.0,5.0,56,0.00,,,0.00,,2013-03-05 00:51:00,
2013-03-04 20:02:00,61.0,45.0,30.14,North,355,0.0,3.0,55,0.00,,,0.00,,2013-03-05 01:02:00,
2013-03-04 20:12:00,61.0,45.0,30.14,North,355,0.0,3.0,55,0.00,,,0.00,,2013-03-05 01:12:00,
2013-03-04 20:22:00,61.0,45.0,30.14,North,355,0.0,2.0,55,0.00,,,0.00,,2013-03-05 01:22:00,
2013-03-04 20:32:00,61.0,45.0,30.14,North,355,0.0,0.0,55,0.00,,,0.00,,2013-03-05 01:32:00,
2013-03-04 20:42:00,61.0,45.0,30.14,North,355,0.0,0.0,55,0.00,,,0.00,,2013-03-05 01:42:00,
2013-03-04 20:52:00,61.0,47.0,30.14,North,9,0.0,1.0,61,0.00,,,0.00,,2013-03-05 01:52:00,
2013-03-04 21:02:00,60.0,45.0,30.15,North,9,0.0,1.0,57,0.00,,,0.00,,2013-03-05 02:02:00,
2013-03-04 21:12:00,60.0,45.0,30.15,North,9,0.0,1.0,57,0.00,,,0.00,,2013-03-05 02:12:00,
2013-03-04 21:22:00,59.0,46.0,30.16,North,9,0.0,3.0,61,0.00,,,0.00,,2013-03-05 02:22:00,
2013-03-04 21:32:00,58.0,43.0,30.16,North,9,0.0,1.0,58,0.00,,,0.00,,2013-03-05 02:32:00,
2013-03-04 21:42:00,58.0,43.0,30.16,North,9,0.0,1.0,58,0.00,,,0.00,,2013-03-05 02:42:00,
2013-03-04 21:52:00,58.0,45.0,30.16,North,9,0.0,1.0,62,0.00,,,0.00,,2013-03-05 02:52:00,
2013-03-04 22:02:00,58.0,45.0,30.16,North,9,0.0,0.0,63,0.00,,,0.00,,2013-03-05 03:02:00,
2013-03-04 22:12:00,57.0,45.0,30.16,North,9,0.0,0.0,63,0.00,,,0.00,,2013-03-05 03:12:00,
2013-03-04 22:22:00,57.0,45.0,30.16,North,9,0.0,0.0,63,0.00,,,0.00,,2013-03-05 03:22:00,
2013-03-04 22:32:00,57.0,45.0,30.16,North,9,0.0,0.0,63,0.00,,,0.00,,2013-03-05 03:32:00,
2013-03-04 22:42:00,57.0,45.0,30.16,North,9,0.0,0.0,63,0.00,,,0.00,,2013-03-05 03:42:00,
2013-03-04 22:52:00,57.0,45.0,30.16,North,9,0.0,0.0,64,0.00,,,0.00,,2013-03-05 03:52:00,
2013-03-04 23:02:00,56.0,44.0,30.16,North,9,0.0,0.0,65,0.00,,,0.00,,2013-03-05 04:02:00,
2013-03-04 23:12:00,56.0,44.0,30.16,North,9,0.0,0.0,65,0.00,,,0.00,,2013-03-05 04:12:00,
2013-03-04 23:22:00,56.0,45.0,30.16,North,9,0.0,0.0,66,0.00,,,0.00,,2013-03-05 04:22:00,
2013-03-04 23:32:00,56.0,45.0,30.15,North,9,0.0,1.0,66,0.00,,,0.00,,2013-03-05 04:32:00,
2013-03-04 23:42:00,56.0,45.0,30.15,North,9,0.0,1.0,66,0.00,,,0.00,,2013-03-05 04:42:00,
2013-03-04 23:52:00,56.0,44.0,30.15,North,9,0.0,2.0,64,0.00,,,0.00,,2013-03-05 04:52:00,